createdAt,value
2023-03-26T00:01:25.901Z,7.41
2023-03-26T00:03:57.659Z,7.43
2023-03-26T00:06:28.669Z,7.48
2023-03-26T00:08:57.208Z,7.55
2023-03-26T00:11:25.352Z,7.58
2023-03-26T00:13:53.728Z,7.53
2023-03-26T00:16:20.649Z,7.54
2023-03-26T00:18:48.962Z,7.50
2023-03-26T00:21:18.050Z,7.57
2023-03-26T00:23:44.642Z,7.64
2023-03-26T00:26:11.167Z,7.58
2023-03-26T00:28:40.332Z,7.66
2023-03-26T00:31:09.417Z,7.63
2023-03-26T00:33:40.683Z,7.64
2023-03-26T00:36:11.151Z,7.62
2023-03-26T00:38:39.113Z,7.56
2023-03-26T00:41:25.508Z,7.60
2023-03-26T00:43:56.374Z,7.49
2023-03-26T00:46:24.767Z,7.50
2023-03-26T00:48:51.402Z,7.50
2023-03-26T00:51:19.615Z,7.50
2023-03-26T00:53:47.769Z,7.52
2023-03-26T00:56:14.737Z,7.52
2023-03-26T00:58:42.078Z,7.45
2023-03-26T01:01:15.534Z,7.38
2023-03-26T01:03:50.333Z,7.35
2023-03-26T01:06:27.788Z,7.43
2023-03-26T01:09:00.280Z,7.18
2023-03-26T01:11:31.852Z,7.15
2023-03-26T01:14:20.403Z,7.18
2023-03-26T01:16:56.379Z,7.09
2023-03-26T01:19:31.740Z,7.15
2023-03-26T01:21:59.034Z,7.00
2023-03-26T01:24:25.622Z,7.06
2023-03-26T01:26:58.163Z,7.09
2023-03-26T01:29:46.408Z,6.97
2023-03-26T01:32:35.287Z,6.94
2023-03-26T01:35:20.552Z,6.96
2023-03-26T01:38:17.504Z,7.13
2023-03-26T01:40:50.366Z,7.14
2023-03-26T01:43:29.069Z,7.11
2023-03-26T01:45:57.958Z,7.17
2023-03-26T01:48:36.776Z,7.22
2023-03-26T01:51:04.830Z,7.22
2023-03-26T01:53:33.333Z,7.32
2023-03-26T01:56:13.184Z,7.33
2023-03-26T01:58:57.316Z,7.20
2023-03-26T02:01:30.264Z,7.26
2023-03-26T02:04:11.688Z,7.23
2023-03-26T02:07:07.620Z,7.37
2023-03-26T02:09:42.100Z,7.35
2023-03-26T02:12:09.703Z,7.30
2023-03-26T02:14:36.344Z,7.24
2023-03-26T02:17:03.028Z,7.16
2023-03-26T02:19:29.787Z,7.16
2023-03-26T02:21:59.702Z,7.14
2023-03-26T02:24:26.620Z,7.09
2023-03-26T02:26:53.192Z,6.93
2023-03-26T02:29:20.441Z,7.00
2023-03-26T02:31:50.988Z,6.99
2023-03-26T02:34:17.768Z,6.90
2023-03-26T02:36:44.242Z,6.90
2023-03-26T02:39:11.978Z,7.13
2023-03-26T02:41:39.120Z,7.04
2023-03-26T02:44:06.216Z,7.05
2023-03-26T02:46:33.689Z,7.06
2023-03-26T02:49:00.229Z,7.10
2023-03-26T02:51:27.268Z,7.10
2023-03-26T02:53:54.707Z,7.05
2023-03-26T02:56:21.231Z,7.05
2023-03-26T02:58:48.224Z,6.73
2023-03-26T03:01:18.313Z,6.77
2023-03-26T03:03:47.226Z,6.79
2023-03-26T03:06:14.530Z,6.82
2023-03-26T03:08:41.621Z,6.80
2023-03-26T03:11:14.815Z,6.84
2023-03-26T03:13:42.065Z,6.77
2023-03-26T03:16:09.851Z,6.37
2023-03-26T03:18:36.590Z,6.34
2023-03-26T03:21:04.047Z,6.30
2023-03-26T03:23:30.749Z,6.37
2023-03-26T03:25:58.076Z,6.38
2023-03-26T03:28:25.740Z,6.37
2023-03-26T03:30:57.420Z,6.26
2023-03-26T03:33:24.270Z,6.32
2023-03-26T03:35:52.468Z,6.47
2023-03-26T03:38:19.313Z,6.42
2023-03-26T03:40:45.792Z,6.56
2023-03-26T03:43:12.223Z,6.74
2023-03-26T03:45:38.679Z,6.73
2023-03-26T03:48:05.322Z,6.61
2023-03-26T03:50:33.704Z,6.67
2023-03-26T03:53:01.554Z,6.85
2023-03-26T03:55:30.016Z,6.67
2023-03-26T03:57:58.314Z,6.73
2023-03-26T04:00:24.837Z,6.46
2023-03-26T04:02:54.339Z,6.71
2023-03-26T04:05:21.251Z,6.79
2023-03-26T04:07:47.726Z,6.88
2023-03-26T04:10:15.270Z,6.84
2023-03-26T04:12:41.827Z,6.82
2023-03-26T04:15:08.424Z,6.62
2023-03-26T04:17:42.339Z,6.79
2023-03-26T04:20:15.468Z,6.70
2023-03-26T04:22:45.122Z,6.70
2023-03-26T04:25:13.376Z,6.73
2023-03-26T04:27:41.751Z,6.80
2023-03-26T04:30:11.001Z,6.96
2023-03-26T04:32:39.136Z,6.83
2023-03-26T04:35:06.736Z,6.89
2023-03-26T04:37:41.539Z,6.86
2023-03-26T04:40:15.973Z,6.89
2023-03-26T04:42:46.273Z,6.89
2023-03-26T04:45:22.325Z,6.92
2023-03-26T04:47:50.172Z,6.95
2023-03-26T04:50:16.743Z,6.95
2023-03-26T04:52:45.146Z,6.88
2023-03-26T04:55:30.992Z,6.72
2023-03-26T04:58:05.484Z,6.62
2023-03-26T05:00:32.349Z,6.47
2023-03-26T05:02:59.396Z,6.41
2023-03-26T05:05:26.948Z,6.41
2023-03-26T05:07:53.713Z,6.46
2023-03-26T05:10:20.895Z,6.69
2023-03-26T05:12:47.508Z,6.60
2023-03-26T05:15:15.358Z,6.65
2023-03-26T05:17:42.134Z,6.66
2023-03-26T05:20:18.232Z,6.89
2023-03-26T05:22:44.961Z,6.96
2023-03-26T05:25:11.466Z,6.97
2023-03-26T05:27:38.508Z,7.02
2023-03-26T05:30:06.231Z,7.14
2023-03-26T05:32:33.787Z,7.00
2023-03-26T05:35:00.989Z,6.55
2023-03-26T05:37:31.878Z,6.41
2023-03-26T05:39:59.246Z,6.45
2023-03-26T05:42:26.322Z,6.72
2023-03-26T05:44:52.702Z,6.95
2023-03-26T05:47:19.223Z,7.04
2023-03-26T05:49:46.904Z,6.94
2023-03-26T05:52:16.070Z,6.57
2023-03-26T05:54:42.782Z,6.81
2023-03-26T05:57:09.261Z,6.95
2023-03-26T05:59:36.629Z,7.06
2023-03-26T06:02:03.420Z,7.32
2023-03-26T06:04:29.953Z,7.41
2023-03-26T06:06:56.915Z,7.38
2023-03-26T06:09:23.799Z,7.26
2023-03-26T06:11:50.282Z,7.15
2023-03-26T06:14:16.921Z,7.09
2023-03-26T06:16:43.429Z,6.99
2023-03-26T06:19:09.976Z,7.15
2023-03-26T06:21:36.394Z,7.31
2023-03-26T06:24:02.895Z,7.31
2023-03-26T06:26:29.345Z,7.36
2023-03-26T06:28:55.771Z,7.39
2023-03-26T06:31:22.202Z,7.38
2023-03-26T06:33:48.888Z,7.34
2023-03-26T06:36:15.451Z,7.35
2023-03-26T06:38:41.875Z,7.42
2023-03-26T06:41:08.303Z,7.49
2023-03-26T06:43:36.161Z,7.61
2023-03-26T06:46:02.862Z,7.62
2023-03-26T06:48:29.338Z,7.63
2023-03-26T06:50:55.947Z,7.77
2023-03-26T06:53:22.549Z,7.84
2023-03-26T06:55:49.101Z,7.80
2023-03-26T06:58:16.623Z,7.40
2023-03-26T07:00:43.268Z,7.30
2023-03-26T07:03:11.201Z,7.42
2023-03-26T07:05:38.720Z,7.14
2023-03-26T07:08:05.420Z,6.97
2023-03-26T07:10:32.132Z,7.04
2023-03-26T07:12:58.572Z,6.99
2023-03-26T07:15:25.141Z,7.09
2023-03-26T07:17:51.832Z,6.84
2023-03-26T07:20:18.494Z,6.84
2023-03-26T07:22:45.233Z,6.86
2023-03-26T07:25:13.588Z,6.92
2023-03-26T07:28:04.669Z,7.00
2023-03-26T07:30:49.834Z,7.14
2023-03-26T07:33:22.759Z,7.20
2023-03-26T07:35:57.868Z,7.17
2023-03-26T07:38:50.704Z,6.89
2023-03-26T07:41:37.710Z,6.79
2023-03-26T07:44:29.251Z,7.06
2023-03-26T07:46:57.168Z,7.30
2023-03-26T07:49:23.985Z,7.41
2023-03-26T07:51:50.737Z,6.95
2023-03-26T07:54:17.504Z,7.10
2023-03-26T07:56:58.677Z,7.20
2023-03-26T07:59:43.808Z,7.00
2023-03-26T08:02:31.507Z,7.09
2023-03-26T08:05:00.784Z,7.25
2023-03-26T08:07:45.441Z,7.02
2023-03-26T08:10:14.922Z,7.02
2023-03-26T08:13:26.632Z,7.33
2023-03-26T08:16:05.582Z,7.14
2023-03-26T08:18:44.624Z,7.15
2023-03-26T08:21:27.131Z,7.36
2023-03-26T08:23:56.666Z,7.67
2023-03-26T08:26:39.381Z,7.39
2023-03-26T08:29:08.609Z,7.04
2023-03-26T08:31:39.142Z,7.08
2023-03-26T08:34:06.316Z,7.38
2023-03-26T08:36:32.849Z,6.97
2023-03-26T08:38:59.687Z,7.04
2023-03-26T08:42:15.281Z,6.73
2023-03-26T08:44:59.984Z,6.80
2023-03-26T08:47:45.276Z,6.74
2023-03-26T08:50:39.873Z,7.14
2023-03-26T08:53:24.769Z,7.33
2023-03-26T08:56:13.045Z,7.46
2023-03-26T08:59:05.870Z,7.41
2023-03-26T09:02:07.839Z,7.36
2023-03-26T09:05:26.544Z,7.25
2023-03-26T09:08:11.397Z,7.22
2023-03-26T09:11:13.068Z,7.22
2023-03-26T09:14:16.677Z,7.25
2023-03-26T09:17:07.649Z,7.28
2023-03-26T09:19:33.994Z,7.21
2023-03-26T09:22:17.346Z,7.28
2023-03-26T09:25:02.154Z,7.15
2023-03-26T09:27:34.724Z,7.20
2023-03-26T09:30:33.716Z,7.25
2023-03-26T09:33:24.663Z,6.92
2023-03-26T09:36:07.796Z,6.95
2023-03-26T09:38:34.335Z,6.74
2023-03-26T09:41:12.921Z,6.84
2023-03-26T09:44:07.520Z,7.17
2023-03-26T09:46:55.653Z,6.77
2023-03-26T09:49:40.982Z,6.59
2023-03-26T09:52:44.397Z,6.43
2023-03-26T09:55:43.025Z,6.47
2023-03-26T09:58:31.464Z,6.30
2023-03-26T10:01:06.983Z,6.24
2023-03-26T10:03:58.343Z,6.49
2023-03-26T10:06:33.724Z,6.62
2023-03-26T10:09:18.544Z,7.11
2023-03-26T10:12:13.697Z,7.47
2023-03-26T10:15:31.100Z,7.88
2023-03-26T10:18:27.036Z,7.99
2023-03-26T10:21:07.092Z,8.82
2023-03-26T10:24:07.558Z,11.15
2023-03-26T10:27:23.054Z,11.69
2023-03-26T10:30:03.455Z,9.65
2023-03-26T10:32:45.411Z,9.19
2023-03-26T10:35:39.777Z,8.99
2023-03-26T10:38:44.850Z,8.67
2023-03-26T10:41:21.498Z,9.24
2023-03-26T10:44:07.461Z,9.49
2023-03-26T10:46:49.603Z,9.44
2023-03-26T10:49:27.910Z,11.74
2023-03-26T10:52:16.066Z,13.49
2023-03-26T10:55:14.515Z,13.67
2023-03-26T10:57:57.836Z,10.75
2023-03-26T11:00:27.175Z,11.13
2023-03-26T11:03:08.526Z,11.29
2023-03-26T11:05:54.002Z,9.45
2023-03-26T11:08:31.222Z,9.26
2023-03-26T11:11:02.113Z,9.08
2023-03-26T11:13:45.566Z,9.46
2023-03-26T11:16:20.755Z,9.64
2023-03-26T11:19:04.461Z,9.56
2023-03-26T11:21:49.641Z,9.66
2023-03-26T11:24:32.413Z,9.69
2023-03-26T11:27:15.403Z,8.95
2023-03-26T11:30:09.291Z,9.14
2023-03-26T11:32:44.818Z,8.89
2023-03-26T11:35:41.081Z,8.80
2023-03-26T11:38:33.486Z,9.49
2023-03-26T11:41:02.980Z,9.19
2023-03-26T11:43:34.891Z,9.49
2023-03-26T11:46:04.640Z,10.22
2023-03-26T11:48:38.136Z,11.13
2023-03-26T11:51:09.021Z,11.75
2023-03-26T11:53:39.876Z,11.21
2023-03-26T11:56:14.808Z,11.36
2023-03-26T11:58:53.663Z,11.00
2023-03-26T12:01:30.471Z,10.90
2023-03-26T12:04:11.000Z,10.61
2023-03-26T12:06:37.536Z,10.00
2023-03-26T12:09:04.058Z,9.86
2023-03-26T12:11:35.282Z,9.79
2023-03-26T12:14:04.707Z,9.84
2023-03-26T12:16:31.511Z,9.89
2023-03-26T12:19:19.644Z,9.76
2023-03-26T12:21:50.539Z,9.95
2023-03-26T12:24:26.017Z,9.51
2023-03-26T12:27:01.907Z,9.73
2023-03-26T12:29:34.322Z,9.68
2023-03-26T12:32:03.956Z,9.62
2023-03-26T12:34:37.450Z,9.52
2023-03-26T12:37:06.827Z,9.59
2023-03-26T12:40:09.079Z,10.25
2023-03-26T12:44:54.605Z,10.24
2023-03-26T12:45:22.543Z,10.78
2023-03-26T12:48:00.516Z,11.35
2023-03-26T12:50:45.564Z,11.48
2023-03-26T12:53:26.467Z,11.66
2023-03-26T12:56:01.614Z,11.14
2023-03-26T12:58:53.424Z,11.13
2023-03-26T13:01:31.011Z,10.91
2023-03-26T13:04:34.046Z,10.58
2023-03-26T13:07:10.730Z,10.94
2023-03-26T13:09:51.741Z,11.04
2023-03-26T13:12:48.873Z,11.75
2023-03-26T13:15:52.435Z,13.40
2023-03-26T13:18:47.587Z,14.73
2023-03-26T13:21:29.449Z,11.94
2023-03-26T13:24:24.468Z,13.12
2023-03-26T13:27:06.223Z,13.73
2023-03-26T13:30:02.366Z,14.34
2023-03-26T13:32:48.852Z,14.75
2023-03-26T13:35:25.868Z,14.93
2023-03-26T13:38:20.443Z,13.52
2023-03-26T13:41:08.282Z,14.64
2023-03-26T13:43:53.482Z,14.42
2023-03-26T13:46:46.540Z,13.25
2023-03-26T13:49:37.067Z,14.69
2023-03-26T13:52:27.481Z,13.64
2023-03-26T13:55:15.606Z,13.24
2023-03-26T13:57:46.890Z,12.85
2023-03-26T14:00:18.293Z,12.79
2023-03-26T14:02:53.234Z,12.70
2023-03-26T14:05:26.123Z,12.60
2023-03-26T14:08:04.397Z,12.35
2023-03-26T14:10:39.964Z,12.05
2023-03-26T14:13:16.220Z,11.52
2023-03-26T14:15:56.072Z,11.80
2023-03-26T14:18:27.667Z,11.96
2023-03-26T14:21:12.640Z,11.87
2023-03-26T14:23:48.156Z,11.49
2023-03-26T14:26:33.331Z,11.33
2023-03-26T14:29:23.574Z,10.96
2023-03-26T14:32:14.061Z,10.88
2023-03-26T14:34:45.267Z,12.85
2023-03-26T14:37:32.924Z,13.09
2023-03-26T14:40:26.959Z,13.71
2023-03-26T14:43:21.326Z,14.08
2023-03-26T14:46:00.254Z,13.40
2023-03-26T14:49:02.978Z,12.84
2023-03-26T14:51:43.585Z,12.16
2023-03-26T14:54:13.817Z,11.17
2023-03-26T14:57:19.091Z,10.47
2023-03-26T15:00:07.221Z,9.51
2023-03-26T15:03:10.832Z,9.51
2023-03-26T15:05:58.901Z,9.22
2023-03-26T15:08:33.565Z,9.13
2023-03-26T15:11:25.521Z,8.93
2023-03-26T15:14:30.060Z,8.77
2023-03-26T15:17:18.240Z,8.77
2023-03-26T15:19:57.773Z,8.74
2023-03-26T15:22:53.219Z,8.56
2023-03-26T15:25:41.495Z,8.20
2023-03-26T15:28:45.718Z,7.50
2023-03-26T15:31:36.917Z,6.85
2023-03-26T15:34:42.328Z,6.46
2023-03-26T15:37:22.384Z,6.46
2023-03-26T15:40:11.362Z,6.70
2023-03-26T15:42:56.185Z,6.60
2023-03-26T15:45:47.879Z,6.58
2023-03-26T15:48:35.458Z,6.51
2023-03-26T15:51:20.098Z,6.73
2023-03-26T15:54:05.793Z,6.69
2023-03-26T15:56:49.086Z,6.78
2023-03-26T15:59:36.903Z,6.69
2023-03-26T16:02:06.615Z,6.73
2023-03-26T16:04:50.855Z,6.85
2023-03-26T16:07:21.796Z,6.88
2023-03-26T16:09:54.257Z,7.04
2023-03-26T16:12:35.705Z,7.20
2023-03-26T16:15:29.697Z,7.37
2023-03-26T16:18:25.212Z,7.20
2023-03-26T16:20:54.947Z,7.33
2023-03-26T16:23:55.054Z,7.64
2023-03-26T16:26:39.978Z,7.60
2023-03-26T16:29:24.603Z,8.10
2023-03-26T16:32:09.641Z,8.31
2023-03-26T16:34:53.056Z,8.31
2023-03-26T16:37:31.806Z,8.37
2023-03-26T16:40:20.110Z,8.28
2023-03-26T16:43:05.187Z,8.10
2023-03-26T16:45:43.823Z,7.85
2023-03-26T16:48:39.412Z,7.85
2023-03-26T16:51:29.167Z,7.73
2023-03-26T16:54:14.359Z,7.53
2023-03-26T16:56:47.519Z,7.29
2023-03-26T16:59:37.910Z,7.36
2023-03-26T17:02:21.146Z,7.24
2023-03-26T17:04:55.662Z,6.92
2023-03-26T17:07:36.342Z,7.13
2023-03-26T17:10:18.425Z,7.09
2023-03-26T17:12:59.670Z,7.19
2023-03-26T17:15:41.261Z,7.37
2023-03-26T17:18:16.787Z,7.35
2023-03-26T17:21:21.777Z,6.93
2023-03-26T17:24:00.384Z,6.99
2023-03-26T17:26:51.495Z,7.15
2023-03-26T17:29:27.280Z,7.15
2023-03-26T17:32:15.116Z,7.30
2023-03-26T17:34:50.857Z,7.01
2023-03-26T17:37:17.228Z,7.22
2023-03-26T17:39:43.787Z,7.21
2023-03-26T17:42:16.214Z,7.12
2023-03-26T17:44:55.571Z,7.23
2023-03-26T17:47:38.519Z,7.07
2023-03-26T17:50:13.888Z,7.17
2023-03-26T17:52:48.130Z,7.17
2023-03-26T17:55:21.167Z,7.19
2023-03-26T17:57:53.196Z,7.21
2023-03-26T18:00:23.480Z,6.92
2023-03-26T18:02:56.303Z,6.87
2023-03-26T18:05:27.059Z,6.96
2023-03-26T18:08:08.679Z,7.15
2023-03-26T18:11:16.714Z,7.03
2023-03-26T18:14:09.246Z,7.07
2023-03-26T18:16:41.147Z,7.17
2023-03-26T18:19:22.609Z,7.10
2023-03-26T18:21:51.861Z,6.99
2023-03-26T18:24:27.580Z,6.81
2023-03-26T18:26:58.411Z,6.87
2023-03-26T18:29:29.057Z,7.02
2023-03-26T18:32:09.013Z,7.02
2023-03-26T18:34:39.518Z,7.07
2023-03-26T18:37:19.865Z,7.10
2023-03-26T18:40:12.102Z,6.97
2023-03-26T18:42:41.390Z,6.96
2023-03-26T18:45:16.844Z,7.16
2023-03-26T18:47:43.735Z,7.00
2023-03-26T18:50:16.793Z,6.90
2023-03-26T18:52:44.876Z,7.14
2023-03-26T18:55:13.987Z,7.32
2023-03-26T18:57:42.413Z,7.43
2023-03-26T19:00:20.718Z,7.57
2023-03-26T19:02:51.545Z,7.69
2023-03-26T19:05:19.635Z,7.54
2023-03-26T19:07:47.296Z,7.42
2023-03-26T19:10:22.320Z,7.58
2023-03-26T19:13:05.647Z,7.56
2023-03-26T19:15:34.400Z,7.61
2023-03-26T19:18:07.434Z,7.69
2023-03-26T19:20:43.942Z,7.69
2023-03-26T19:23:16.111Z,7.64
2023-03-26T19:25:49.429Z,7.71
2023-03-26T19:28:38.381Z,7.56
2023-03-26T19:31:36.116Z,7.53
2023-03-26T19:34:24.370Z,7.49
2023-03-26T19:36:58.108Z,7.64
2023-03-26T19:39:51.161Z,7.61
2023-03-26T19:42:27.627Z,7.74
2023-03-26T19:45:17.989Z,7.85
2023-03-26T19:47:50.378Z,7.85
2023-03-26T19:50:27.815Z,7.90
2023-03-26T19:53:17.713Z,7.74
2023-03-26T19:58:30.752Z,7.86
2023-03-26T20:00:57.616Z,7.98
2023-03-26T20:03:30.560Z,7.91
2023-03-26T20:05:57.123Z,7.76
2023-03-26T20:08:29.633Z,7.77
2023-03-26T20:10:57.923Z,7.58
2023-03-26T20:13:24.934Z,7.47
2023-03-26T20:16:25.748Z,7.43
2023-03-26T20:18:52.439Z,7.34
2023-03-26T20:21:19.027Z,7.20
2023-03-26T20:23:45.792Z,7.09
2023-03-26T20:26:15.297Z,7.13
2023-03-26T20:28:48.452Z,7.02
2023-03-26T20:31:22.292Z,6.85
2023-03-26T20:33:50.600Z,6.87
2023-03-26T20:36:33.946Z,6.90
2023-03-26T20:39:05.638Z,6.87
2023-03-26T20:41:33.700Z,6.84
2023-03-26T20:44:00.497Z,6.74
2023-03-26T20:46:31.255Z,6.81
2023-03-26T20:48:58.876Z,6.54
2023-03-26T20:51:28.034Z,6.44
2023-03-26T20:53:55.242Z,6.46
2023-03-26T20:56:21.842Z,6.41
2023-03-26T20:58:54.663Z,6.37
2023-03-26T21:01:27.650Z,6.47
2023-03-26T21:03:54.218Z,6.31
2023-03-26T21:06:20.684Z,6.32
2023-03-26T21:08:47.333Z,6.11
2023-03-26T21:11:39.438Z,6.32
2023-03-26T21:14:27.229Z,6.24
2023-03-26T21:16:54.117Z,6.29
2023-03-26T21:19:21.047Z,6.30
2023-03-26T21:22:10.961Z,6.43
2023-03-26T21:24:56.981Z,6.41
2023-03-26T21:27:26.453Z,6.22
2023-03-26T21:29:56.071Z,6.32
2023-03-26T21:32:23.158Z,6.14
2023-03-26T21:34:58.566Z,6.03
2023-03-26T21:37:26.530Z,6.07
2023-03-26T21:39:53.271Z,6.03
2023-03-26T21:42:20.095Z,5.93
2023-03-26T21:44:46.900Z,5.95
2023-03-26T21:47:13.979Z,5.90
2023-03-26T21:49:41.230Z,5.79
2023-03-26T21:52:14.561Z,5.65
2023-03-26T21:54:43.042Z,5.73
2023-03-26T21:57:28.989Z,5.73
2023-03-26T22:00:15.128Z,5.66
2023-03-26T22:02:58.510Z,5.63
2023-03-26T22:05:47.922Z,5.71
2023-03-26T22:08:27.525Z,5.72
2023-03-26T22:10:54.066Z,5.64
2023-03-26T22:13:20.675Z,5.61
2023-03-26T22:15:47.100Z,5.61
2023-03-26T22:18:14.225Z,5.63
2023-03-26T22:20:43.239Z,5.59
2023-03-26T22:23:09.804Z,5.57
2023-03-26T22:25:36.348Z,5.52
2023-03-26T22:28:04.256Z,5.43
2023-03-26T22:30:30.864Z,5.40
2023-03-26T22:32:58.692Z,5.40
2023-03-26T22:35:26.218Z,5.35
2023-03-26T22:37:53.002Z,5.10
2023-03-26T22:40:27.768Z,5.15
2023-03-26T22:42:54.317Z,5.19
2023-03-26T22:45:22.831Z,5.09
2023-03-26T22:47:49.967Z,5.12
2023-03-26T22:50:16.639Z,5.18
2023-03-26T22:52:43.540Z,5.23
2023-03-26T22:55:11.629Z,5.06
2023-03-26T22:57:39.166Z,5.11
2023-03-26T23:00:15.561Z,4.97
2023-03-26T23:02:46.306Z,4.85
2023-03-26T23:05:14.236Z,4.96
2023-03-26T23:07:42.311Z,4.58
2023-03-26T23:10:10.041Z,4.72
2023-03-26T23:12:38.008Z,4.77
2023-03-26T23:15:05.562Z,4.62
2023-03-26T23:17:34.950Z,4.66
2023-03-26T23:20:06.037Z,4.59
2023-03-26T23:22:32.586Z,4.62
2023-03-26T23:24:59.028Z,4.35
2023-03-26T23:27:25.480Z,4.49
2023-03-26T23:29:51.897Z,4.61
2023-03-26T23:32:24.728Z,4.71
2023-03-26T23:34:52.795Z,4.55
2023-03-26T23:37:23.121Z,4.41
2023-03-26T23:39:51.296Z,4.40
2023-03-26T23:42:28.316Z,4.50
2023-03-26T23:44:56.604Z,4.25
2023-03-26T23:47:23.126Z,4.47
2023-03-26T23:49:50.179Z,4.53
2023-03-26T23:52:16.658Z,4.54
2023-03-26T23:54:43.085Z,4.43
2023-03-26T23:57:10.507Z,4.49
2023-03-26T23:59:37.078Z,4.35
